Tri-State, Milton J. Ferguson Field Huntington US
ICAO: KHTS
IATA: HTS
Category: Large
Scheduled Services: Yes

Elevation: 828 ft
TransAlt. 18000 ft.

Airport Communications:
HUNTINGTON APP/DEP:119.75
ATIS:125.2
CLNC DEL:118.05
GND:121.9
ELKINS RDO:122.2
HUNTINGTON TWR:118.5
UNICOM:122.95

KHTS Zoom In..

If you have problems with the map follow the link
https://www.worldairports.se/pages/airport.php?
ICAO=KHTS

Runways:

(A) RW 12 length 7017 ft width 150 ft
ILS 109.90 / hdg 118

(B) RW 30 length 7017 ft width 150 ft
ILS 108.70 / hdg 298

Location; KHTS
Day. 16 / Time. 11.51 Zulu
* Altimeter: 30.07
* Temperature: -01° c. -30.2°f.
* Wind from: 240° Speed 10 kn with Gusts up to 16 kn.
Dewpoint: -03° c.
Visibility: 10 Statute Miles.
Clouds: Overcast 1100 ft.

KHTS 161151Z 24010G16KT 10SM OVC011 M01/M03 A3007 RMK AO2 SLP187 70084 T10061033 11006 21006 53009


Wind From 240°
Speed 10 kn.

 
 
jpsmedia.com for Web Design worldairports.se 2018   terms of use